sensor_id;sensor_type;location;lat;lon;timestamp;P1;durP1;ratioP1;P2;durP2;ratioP2
80119;SDS011;69425;55.040;82.918;2023-12-28T00:04:40;7.53;;;1.83;;
80119;SDS011;69425;55.040;82.918;2023-12-28T00:09:41;2.60;;;1.15;;
80119;SDS011;69425;55.040;82.918;2023-12-28T00:14:42;2.75;;;1.48;;
80119;SDS011;69425;55.040;82.918;2023-12-28T00:19:45;2.50;;;1.63;;
80119;SDS011;69425;55.040;82.918;2023-12-28T00:24:47;2.13;;;1.27;;
80119;SDS011;69425;55.040;82.918;2023-12-28T00:29:48;7.80;;;1.80;;
80119;SDS011;69425;55.040;82.918;2023-12-28T00:34:51;4.32;;;1.17;;
80119;SDS011;69425;55.040;82.918;2023-12-28T00:39:52;3.20;;;2.03;;
80119;SDS011;69425;55.040;82.918;2023-12-28T00:44:54;1.90;;;0.98;;
80119;SDS011;69425;55.040;82.918;2023-12-28T00:49:56;2.30;;;1.25;;
80119;SDS011;69425;55.040;82.918;2023-12-28T00:54:58;3.85;;;0.98;;
80119;SDS011;69425;55.040;82.918;2023-12-28T00:59:59;2.45;;;1.45;;
80119;SDS011;69425;55.040;82.918;2023-12-28T01:05:02;3.00;;;1.35;;
80119;SDS011;69425;55.040;82.918;2023-12-28T01:10:04;2.10;;;1.70;;
80119;SDS011;69425;55.040;82.918;2023-12-28T01:15:06;4.03;;;0.95;;
80119;SDS011;69425;55.040;82.918;2023-12-28T01:20:10;3.28;;;1.50;;
80119;SDS011;69425;55.040;82.918;2023-12-28T01:25:11;1.83;;;1.05;;
80119;SDS011;69425;55.040;82.918;2023-12-28T01:30:12;2.53;;;0.88;;
80119;SDS011;69425;55.040;82.918;2023-12-28T01:35:15;2.75;;;0.80;;
80119;SDS011;69425;55.040;82.918;2023-12-28T01:40:17;1.00;;;0.90;;
80119;SDS011;69425;55.040;82.918;2023-12-28T01:45:18;1.70;;;0.60;;
80119;SDS011;69425;55.040;82.918;2023-12-28T01:50:21;2.05;;;1.08;;
80119;SDS011;69425;55.040;82.918;2023-12-28T01:55:24;3.92;;;0.82;;
80119;SDS011;69425;55.040;82.918;2023-12-28T02:00:26;2.97;;;0.80;;
80119;SDS011;69425;55.040;82.918;2023-12-28T02:05:29;2.88;;;1.17;;
80119;SDS011;69425;55.040;82.918;2023-12-28T02:10:30;5.45;;;1.42;;
80119;SDS011;69425;55.040;82.918;2023-12-28T02:15:32;7.85;;;2.03;;
80119;SDS011;69425;55.040;82.918;2023-12-28T02:20:35;9.95;;;1.90;;
80119;SDS011;69425;55.040;82.918;2023-12-28T02:25:38;5.95;;;2.78;;
80119;SDS011;69425;55.040;82.918;2023-12-28T02:30:39;4.30;;;2.20;;
80119;SDS011;69425;55.040;82.918;2023-12-28T02:35:41;5.20;;;1.95;;
80119;SDS011;69425;55.040;82.918;2023-12-28T02:40:46;7.80;;;1.75;;
80119;SDS011;69425;55.040;82.918;2023-12-28T02:45:48;3.92;;;2.13;;
80119;SDS011;69425;55.040;82.918;2023-12-28T02:50:49;6.00;;;1.50;;
80119;SDS011;69425;55.040;82.918;2023-12-28T02:55:52;4.90;;;1.52;;
80119;SDS011;69425;55.040;82.918;2023-12-28T03:00:53;6.65;;;1.40;;
80119;SDS011;69425;55.040;82.918;2023-12-28T03:05:55;5.97;;;2.28;;
80119;SDS011;69425;55.040;82.918;2023-12-28T03:10:57;8.50;;;3.13;;
80119;SDS011;69425;55.040;82.918;2023-12-28T03:15:59;5.25;;;2.55;;
80119;SDS011;69425;55.040;82.918;2023-12-28T03:21:00;5.05;;;2.13;;
80119;SDS011;69425;55.040;82.918;2023-12-28T03:26:03;14.70;;;3.45;;
80119;SDS011;69425;55.040;82.918;2023-12-28T03:31:04;10.30;;;2.55;;
80119;SDS011;69425;55.040;82.918;2023-12-28T03:36:06;4.63;;;2.38;;
80119;SDS011;69425;55.040;82.918;2023-12-28T03:41:17;4.40;;;2.28;;
80119;SDS011;69425;55.040;82.918;2023-12-28T03:46:18;8.07;;;2.25;;
80119;SDS011;69425;55.040;82.918;2023-12-28T03:51:19;10.45;;;2.42;;
80119;SDS011;69425;55.040;82.918;2023-12-28T03:56:23;4.63;;;2.13;;
80119;SDS011;69425;55.040;82.918;2023-12-28T04:01:25;4.00;;;2.08;;
80119;SDS011;69425;55.040;82.918;2023-12-28T04:06:26;4.97;;;1.73;;
80119;SDS011;69425;55.040;82.918;2023-12-28T04:11:29;4.85;;;2.38;;
80119;SDS011;69425;55.040;82.918;2023-12-28T04:16:30;6.82;;;3.30;;
80119;SDS011;69425;55.040;82.918;2023-12-28T04:21:31;3.85;;;2.25;;
80119;SDS011;69425;55.040;82.918;2023-12-28T04:26:34;6.40;;;3.22;;
80119;SDS011;69425;55.040;82.918;2023-12-28T04:31:39;9.48;;;3.80;;
80119;SDS011;69425;55.040;82.918;2023-12-28T04:36:40;5.78;;;2.38;;
80119;SDS011;69425;55.040;82.918;2023-12-28T04:41:43;3.88;;;2.22;;
80119;SDS011;69425;55.040;82.918;2023-12-28T04:46:44;5.00;;;2.05;;
80119;SDS011;69425;55.040;82.918;2023-12-28T04:51:46;5.18;;;2.33;;
80119;SDS011;69425;55.040;82.918;2023-12-28T04:56:48;7.40;;;2.05;;
80119;SDS011;69425;55.040;82.918;2023-12-28T05:01:50;10.55;;;2.85;;
80119;SDS011;69425;55.040;82.918;2023-12-28T05:06:52;9.48;;;2.78;;
80119;SDS011;69425;55.040;82.918;2023-12-28T05:11:55;5.90;;;2.50;;
80119;SDS011;69425;55.040;82.918;2023-12-28T05:16:56;8.43;;;3.50;;
80119;SDS011;69425;55.040;82.918;2023-12-28T05:21:58;6.25;;;2.92;;
80119;SDS011;69425;55.040;82.918;2023-12-28T05:27:01;14.98;;;3.92;;
80119;SDS011;69425;55.040;82.918;2023-12-28T05:32:02;5.10;;;2.75;;
80119;SDS011;69425;55.040;82.918;2023-12-28T05:37:03;6.85;;;2.15;;
80119;SDS011;69425;55.040;82.918;2023-12-28T05:42:06;6.63;;;2.30;;
80119;SDS011;69425;55.040;82.918;2023-12-28T05:47:08;5.05;;;2.20;;
80119;SDS011;69425;55.040;82.918;2023-12-28T05:52:09;6.07;;;1.98;;
80119;SDS011;69425;55.040;82.918;2023-12-28T05:57:12;5.40;;;2.38;;
80119;SDS011;69425;55.040;82.918;2023-12-28T06:02:13;3.80;;;1.80;;
80119;SDS011;69425;55.040;82.918;2023-12-28T06:07:14;10.55;;;2.70;;
80119;SDS011;69425;55.040;82.918;2023-12-28T06:12:17;5.65;;;2.25;;
80119;SDS011;69425;55.040;82.918;2023-12-28T06:17:18;4.60;;;1.83;;
80119;SDS011;69425;55.040;82.918;2023-12-28T06:22:19;5.60;;;2.05;;
80119;SDS011;69425;55.040;82.918;2023-12-28T06:27:22;10.45;;;2.33;;
80119;SDS011;69425;55.040;82.918;2023-12-28T06:32:23;8.13;;;2.33;;
80119;SDS011;69425;55.040;82.918;2023-12-28T06:37:25;4.03;;;1.83;;
80119;SDS011;69425;55.040;82.918;2023-12-28T06:42:27;3.28;;;1.77;;
80119;SDS011;69425;55.040;82.918;2023-12-28T06:47:29;7.40;;;2.60;;
80119;SDS011;69425;55.040;82.918;2023-12-28T06:52:30;4.30;;;2.22;;
80119;SDS011;69425;55.040;82.918;2023-12-28T06:57:33;3.58;;;1.50;;
80119;SDS011;69425;55.040;82.918;2023-12-28T07:02:34;4.55;;;1.80;;
80119;SDS011;69425;55.040;82.918;2023-12-28T07:07:35;4.35;;;1.60;;
80119;SDS011;69425;55.040;82.918;2023-12-28T07:12:38;4.50;;;2.13;;
80119;SDS011;69425;55.040;82.918;2023-12-28T07:17:39;4.85;;;2.55;;
80119;SDS011;69425;55.040;82.918;2023-12-28T07:22:41;8.68;;;2.95;;
80119;SDS011;69425;55.040;82.918;2023-12-28T07:27:43;4.13;;;1.92;;
80119;SDS011;69425;55.040;82.918;2023-12-28T07:32:45;7.78;;;2.15;;
80119;SDS011;69425;55.040;82.918;2023-12-28T07:37:46;3.70;;;1.80;;
80119;SDS011;69425;55.040;82.918;2023-12-28T07:42:49;3.85;;;2.33;;
80119;SDS011;69425;55.040;82.918;2023-12-28T07:47:50;8.55;;;2.13;;
80119;SDS011;69425;55.040;82.918;2023-12-28T07:52:51;7.32;;;2.45;;
80119;SDS011;69425;55.040;82.918;2023-12-28T07:57:54;10.00;;;2.50;;
80119;SDS011;69425;55.040;82.918;2023-12-28T08:02:55;7.47;;;2.17;;
80119;SDS011;69425;55.040;82.918;2023-12-28T08:07:56;8.80;;;2.88;;
80119;SDS011;69425;55.040;82.918;2023-12-28T08:12:59;8.50;;;3.00;;
80119;SDS011;69425;55.040;82.918;2023-12-28T08:18:00;11.15;;;2.58;;
80119;SDS011;69425;55.040;82.918;2023-12-28T08:23:02;7.07;;;1.83;;
80119;SDS011;69425;55.040;82.918;2023-12-28T08:28:05;4.68;;;1.77;;
80119;SDS011;69425;55.040;82.918;2023-12-28T08:33:06;3.30;;;1.55;;
80119;SDS011;69425;55.040;82.918;2023-12-28T08:38:07;2.33;;;1.55;;
80119;SDS011;69425;55.040;82.918;2023-12-28T08:43:10;4.25;;;1.45;;
80119;SDS011;69425;55.040;82.918;2023-12-28T08:48:11;5.30;;;2.28;;
80119;SDS011;69425;55.040;82.918;2023-12-28T08:53:13;6.45;;;2.40;;
80119;SDS011;69425;55.040;82.918;2023-12-28T08:58:15;10.00;;;2.47;;
80119;SDS011;69425;55.040;82.918;2023-12-28T09:03:17;6.82;;;1.80;;
80119;SDS011;69425;55.040;82.918;2023-12-28T09:08:18;2.33;;;1.67;;
80119;SDS011;69425;55.040;82.918;2023-12-28T09:13:21;4.18;;;1.58;;
80119;SDS011;69425;55.040;82.918;2023-12-28T09:18:22;6.60;;;2.50;;
80119;SDS011;69425;55.040;82.918;2023-12-28T09:23:23;6.68;;;2.60;;
80119;SDS011;69425;55.040;82.918;2023-12-28T09:28:26;9.00;;;2.70;;
80119;SDS011;69425;55.040;82.918;2023-12-28T09:33:27;4.60;;;1.98;;
80119;SDS011;69425;55.040;82.918;2023-12-28T09:38:28;3.20;;;1.27;;
80119;SDS011;69425;55.040;82.918;2023-12-28T09:43:33;1.85;;;1.30;;
80119;SDS011;69425;55.040;82.918;2023-12-28T09:48:46;3.00;;;1.13;;
80119;SDS011;69425;55.040;82.918;2023-12-28T09:53:47;2.90;;;0.95;;
80119;SDS011;69425;55.040;82.918;2023-12-28T09:58:50;3.35;;;1.20;;
80119;SDS011;69425;55.040;82.918;2023-12-28T10:03:52;3.58;;;0.98;;
80119;SDS011;69425;55.040;82.918;2023-12-28T10:08:53;7.55;;;1.80;;
80119;SDS011;69425;55.040;82.918;2023-12-28T10:13:56;2.92;;;1.48;;
80119;SDS011;69425;55.040;82.918;2023-12-28T10:18:59;8.52;;;2.53;;
80119;SDS011;69425;55.040;82.918;2023-12-28T10:24:00;8.90;;;1.98;;
80119;SDS011;69425;55.040;82.918;2023-12-28T10:29:04;2.75;;;1.80;;
80119;SDS011;69425;55.040;82.918;2023-12-28T10:34:05;7.50;;;2.13;;
80119;SDS011;69425;55.040;82.918;2023-12-28T10:39:07;3.33;;;0.95;;
80119;SDS011;69425;55.040;82.918;2023-12-28T10:44:11;3.17;;;1.33;;
80119;SDS011;69425;55.040;82.918;2023-12-28T10:49:15;3.72;;;0.85;;
80119;SDS011;69425;55.040;82.918;2023-12-28T10:54:20;2.97;;;1.27;;
80119;SDS011;69425;55.040;82.918;2023-12-28T10:59:31;3.40;;;1.30;;
80119;SDS011;69425;55.040;82.918;2023-12-28T11:04:40;4.57;;;1.40;;
80119;SDS011;69425;55.040;82.918;2023-12-28T11:09:42;3.28;;;1.27;;
80119;SDS011;69425;55.040;82.918;2023-12-28T11:14:44;5.15;;;2.00;;
80119;SDS011;69425;55.040;82.918;2023-12-28T11:19:46;4.65;;;2.00;;
80119;SDS011;69425;55.040;82.918;2023-12-28T11:24:47;5.35;;;1.83;;
80119;SDS011;69425;55.040;82.918;2023-12-28T11:29:51;8.35;;;2.58;;
80119;SDS011;69425;55.040;82.918;2023-12-28T11:34:56;9.07;;;2.45;;
80119;SDS011;69425;55.040;82.918;2023-12-28T11:39:57;6.40;;;1.63;;
80119;SDS011;69425;55.040;82.918;2023-12-28T11:45:00;3.90;;;1.92;;
80119;SDS011;69425;55.040;82.918;2023-12-28T11:50:06;2.75;;;1.60;;
80119;SDS011;69425;55.040;82.918;2023-12-28T11:55:08;3.88;;;2.17;;
80119;SDS011;69425;55.040;82.918;2023-12-28T12:00:11;6.22;;;2.30;;
80119;SDS011;69425;55.040;82.918;2023-12-28T12:05:15;7.65;;;1.48;;
80119;SDS011;69425;55.040;82.918;2023-12-28T12:10:17;6.13;;;2.92;;
80119;SDS011;69425;55.040;82.918;2023-12-28T12:15:24;6.53;;;2.78;;
80119;SDS011;69425;55.040;82.918;2023-12-28T12:20:25;4.30;;;2.65;;
80119;SDS011;69425;55.040;82.918;2023-12-28T12:25:26;4.72;;;2.70;;
80119;SDS011;69425;55.040;82.918;2023-12-28T12:30:31;6.50;;;2.10;;
80119;SDS011;69425;55.040;82.918;2023-12-28T12:35:32;5.07;;;3.22;;
80119;SDS011;69425;55.040;82.918;2023-12-28T12:40:33;6.03;;;2.35;;
80119;SDS011;69425;55.040;82.918;2023-12-28T12:45:36;6.05;;;1.90;;
80119;SDS011;69425;55.040;82.918;2023-12-28T12:50:37;5.85;;;2.50;;
80119;SDS011;69425;55.040;82.918;2023-12-28T12:55:39;7.65;;;3.30;;
80119;SDS011;69425;55.040;82.918;2023-12-28T13:00:41;2.95;;;2.13;;
80119;SDS011;69425;55.040;82.918;2023-12-28T13:05:43;3.90;;;1.60;;
80119;SDS011;69425;55.040;82.918;2023-12-28T13:10:44;6.25;;;2.10;;
80119;SDS011;69425;55.040;82.918;2023-12-28T13:15:47;5.88;;;2.83;;
80119;SDS011;69425;55.040;82.918;2023-12-28T13:20:48;5.05;;;1.95;;
80119;SDS011;69425;55.040;82.918;2023-12-28T13:25:49;3.95;;;1.80;;
80119;SDS011;69425;55.040;82.918;2023-12-28T13:30:52;4.13;;;1.83;;
80119;SDS011;69425;55.040;82.918;2023-12-28T13:35:53;3.72;;;1.98;;
80119;SDS011;69425;55.040;82.918;2023-12-28T13:40:54;2.88;;;1.13;;
80119;SDS011;69425;55.040;82.918;2023-12-28T13:45:57;4.38;;;1.67;;
80119;SDS011;69425;55.040;82.918;2023-12-28T13:50:58;6.10;;;1.73;;
80119;SDS011;69425;55.040;82.918;2023-12-28T13:56:00;3.10;;;1.45;;
80119;SDS011;69425;55.040;82.918;2023-12-28T14:01:03;1.75;;;1.10;;
80119;SDS011;69425;55.040;82.918;2023-12-28T14:06:04;5.43;;;1.70;;
80119;SDS011;69425;55.040;82.918;2023-12-28T14:11:06;10.60;;;2.42;;
80119;SDS011;69425;55.040;82.918;2023-12-28T14:16:09;4.82;;;1.85;;
80119;SDS011;69425;55.040;82.918;2023-12-28T14:21:10;5.55;;;2.50;;
80119;SDS011;69425;55.040;82.918;2023-12-28T14:26:12;4.55;;;1.33;;
80119;SDS011;69425;55.040;82.918;2023-12-28T14:36:19;8.90;;;1.67;;
80119;SDS011;69425;55.040;82.918;2023-12-28T14:41:25;2.22;;;1.35;;
80119;SDS011;69425;55.040;82.918;2023-12-28T14:46:28;6.82;;;2.13;;
80119;SDS011;69425;55.040;82.918;2023-12-28T14:51:29;6.70;;;1.85;;
80119;SDS011;69425;55.040;82.918;2023-12-28T14:56:30;7.28;;;2.35;;
80119;SDS011;69425;55.040;82.918;2023-12-28T15:01:33;5.47;;;2.42;;
80119;SDS011;69425;55.040;82.918;2023-12-28T15:06:34;6.53;;;2.28;;
80119;SDS011;69425;55.040;82.918;2023-12-28T15:11:36;5.75;;;2.35;;
80119;SDS011;69425;55.040;82.918;2023-12-28T15:16:39;7.90;;;1.92;;
80119;SDS011;69425;55.040;82.918;2023-12-28T15:21:41;7.90;;;2.55;;
80119;SDS011;69425;55.040;82.918;2023-12-28T15:26:42;7.63;;;2.95;;
80119;SDS011;69425;55.040;82.918;2023-12-28T15:31:45;9.05;;;3.00;;
80119;SDS011;69425;55.040;82.918;2023-12-28T15:36:47;8.18;;;2.40;;
80119;SDS011;69425;55.040;82.918;2023-12-28T15:41:48;6.43;;;2.58;;
80119;SDS011;69425;55.040;82.918;2023-12-28T15:46:50;6.28;;;2.38;;
80119;SDS011;69425;55.040;82.918;2023-12-28T15:51:52;7.20;;;2.72;;
80119;SDS011;69425;55.040;82.918;2023-12-28T15:56:53;9.13;;;2.13;;
80119;SDS011;69425;55.040;82.918;2023-12-28T16:01:55;2.25;;;1.85;;
80119;SDS011;69425;55.040;82.918;2023-12-28T16:06:57;17.98;;;3.63;;
80119;SDS011;69425;55.040;82.918;2023-12-28T16:11:58;7.47;;;1.75;;
80119;SDS011;69425;55.040;82.918;2023-12-28T16:17:01;3.80;;;1.38;;
80119;SDS011;69425;55.040;82.918;2023-12-28T16:22:03;3.60;;;1.17;;
80119;SDS011;69425;55.040;82.918;2023-12-28T16:27:05;2.20;;;1.30;;
80119;SDS011;69425;55.040;82.918;2023-12-28T16:32:07;2.35;;;1.23;;
80119;SDS011;69425;55.040;82.918;2023-12-28T16:37:09;2.10;;;1.25;;
80119;SDS011;69425;55.040;82.918;2023-12-28T16:42:10;1.85;;;1.23;;
80119;SDS011;69425;55.040;82.918;2023-12-28T16:47:13;2.33;;;1.10;;
80119;SDS011;69425;55.040;82.918;2023-12-28T16:52:14;3.80;;;1.58;;
80119;SDS011;69425;55.040;82.918;2023-12-28T16:57:15;2.55;;;0.77;;
80119;SDS011;69425;55.040;82.918;2023-12-28T17:02:18;1.17;;;0.73;;
80119;SDS011;69425;55.040;82.918;2023-12-28T17:07:19;1.13;;;0.50;;
80119;SDS011;69425;55.040;82.918;2023-12-28T17:12:22;0.82;;;0.65;;
80119;SDS011;69425;55.040;82.918;2023-12-28T17:17:28;1.85;;;1.02;;
80119;SDS011;69425;55.040;82.918;2023-12-28T17:22:31;3.40;;;1.20;;
80119;SDS011;69425;55.040;82.918;2023-12-28T17:27:46;1.20;;;0.80;;
80119;SDS011;69425;55.040;82.918;2023-12-28T17:32:52;1.23;;;0.73;;
80119;SDS011;69425;55.040;82.918;2023-12-28T17:37:58;0.93;;;0.50;;
80119;SDS011;69425;55.040;82.918;2023-12-28T17:43:01;1.83;;;0.75;;
80119;SDS011;69425;55.040;82.918;2023-12-28T17:48:08;0.85;;;0.60;;
80119;SDS011;69425;55.040;82.918;2023-12-28T17:53:15;1.45;;;0.65;;
80119;SDS011;69425;55.040;82.918;2023-12-28T17:58:17;1.20;;;0.82;;
80119;SDS011;69425;55.040;82.918;2023-12-28T18:03:20;1.27;;;0.90;;
80119;SDS011;69425;55.040;82.918;2023-12-28T18:08:21;1.33;;;0.77;;
80119;SDS011;69425;55.040;82.918;2023-12-28T18:13:22;2.40;;;1.33;;
80119;SDS011;69425;55.040;82.918;2023-12-28T18:18:25;1.58;;;0.70;;
80119;SDS011;69425;55.040;82.918;2023-12-28T18:23:26;0.30;;;0.30;;
80119;SDS011;69425;55.040;82.918;2023-12-28T18:28:28;0.68;;;0.45;;
80119;SDS011;69425;55.040;82.918;2023-12-28T18:33:30;1.48;;;1.00;;
80119;SDS011;69425;55.040;82.918;2023-12-28T18:38:32;1.50;;;1.10;;
80119;SDS011;69425;55.040;82.918;2023-12-28T18:43:33;1.10;;;0.57;;
80119;SDS011;69425;55.040;82.918;2023-12-28T18:48:36;1.92;;;0.60;;
80119;SDS011;69425;55.040;82.918;2023-12-28T18:53:37;1.05;;;0.93;;
80119;SDS011;69425;55.040;82.918;2023-12-28T18:58:38;2.47;;;0.63;;
80119;SDS011;69425;55.040;82.918;2023-12-28T19:03:41;0.65;;;0.57;;
80119;SDS011;69425;55.040;82.918;2023-12-28T19:08:42;2.25;;;1.10;;
80119;SDS011;69425;55.040;82.918;2023-12-28T19:13:43;0.77;;;0.52;;
80119;SDS011;69425;55.040;82.918;2023-12-28T19:18:46;1.02;;;0.75;;
80119;SDS011;69425;55.040;82.918;2023-12-28T19:23:48;1.08;;;0.68;;
80119;SDS011;69425;55.040;82.918;2023-12-28T19:28:49;0.65;;;0.40;;
80119;SDS011;69425;55.040;82.918;2023-12-28T19:33:52;2.65;;;0.90;;
80119;SDS011;69425;55.040;82.918;2023-12-28T19:38:53;1.67;;;1.13;;
80119;SDS011;69425;55.040;82.918;2023-12-28T19:43:54;1.05;;;0.75;;
80119;SDS011;69425;55.040;82.918;2023-12-28T19:48:57;1.00;;;0.50;;
80119;SDS011;69425;55.040;82.918;2023-12-28T19:53:58;2.22;;;0.65;;
80119;SDS011;69425;55.040;82.918;2023-12-28T19:58:59;2.75;;;1.02;;
80119;SDS011;69425;55.040;82.918;2023-12-28T20:04:02;2.63;;;0.63;;
80119;SDS011;69425;55.040;82.918;2023-12-28T20:09:04;2.00;;;0.80;;
80119;SDS011;69425;55.040;82.918;2023-12-28T20:14:05;0.85;;;0.73;;
80119;SDS011;69425;55.040;82.918;2023-12-28T20:19:08;1.45;;;0.77;;
80119;SDS011;69425;55.040;82.918;2023-12-28T20:24:09;1.77;;;0.77;;
80119;SDS011;69425;55.040;82.918;2023-12-28T20:29:10;0.95;;;0.60;;
80119;SDS011;69425;55.040;82.918;2023-12-28T20:34:13;4.60;;;1.30;;
80119;SDS011;69425;55.040;82.918;2023-12-28T20:39:14;1.40;;;0.63;;
80119;SDS011;69425;55.040;82.918;2023-12-28T20:44:15;1.17;;;0.63;;
80119;SDS011;69425;55.040;82.918;2023-12-28T20:49:18;1.48;;;0.75;;
80119;SDS011;69425;55.040;82.918;2023-12-28T20:54:19;1.85;;;0.98;;
80119;SDS011;69425;55.040;82.918;2023-12-28T20:59:20;1.48;;;0.73;;
80119;SDS011;69425;55.040;82.918;2023-12-28T21:04:23;2.83;;;0.85;;
80119;SDS011;69425;55.040;82.918;2023-12-28T21:09:24;3.47;;;1.10;;
80119;SDS011;69425;55.040;82.918;2023-12-28T21:14:25;4.78;;;1.33;;
80119;SDS011;69425;55.040;82.918;2023-12-28T21:19:28;1.13;;;0.40;;
80119;SDS011;69425;55.040;82.918;2023-12-28T21:24:29;1.38;;;0.65;;
80119;SDS011;69425;55.040;82.918;2023-12-28T21:29:31;2.15;;;0.68;;
80119;SDS011;69425;55.040;82.918;2023-12-28T21:34:33;1.63;;;0.60;;
80119;SDS011;69425;55.040;82.918;2023-12-28T21:39:35;1.05;;;0.35;;
80119;SDS011;69425;55.040;82.918;2023-12-28T21:44:36;0.75;;;0.63;;
80119;SDS011;69425;55.040;82.918;2023-12-28T21:49:39;1.30;;;0.75;;
80119;SDS011;69425;55.040;82.918;2023-12-28T21:54:40;2.00;;;0.95;;
80119;SDS011;69425;55.040;82.918;2023-12-28T21:59:41;0.85;;;0.50;;
80119;SDS011;69425;55.040;82.918;2023-12-28T22:04:44;2.83;;;1.02;;
80119;SDS011;69425;55.040;82.918;2023-12-28T22:09:45;1.95;;;0.82;;
80119;SDS011;69425;55.040;82.918;2023-12-28T22:14:46;1.25;;;0.85;;
80119;SDS011;69425;55.040;82.918;2023-12-28T22:19:49;3.20;;;1.05;;
80119;SDS011;69425;55.040;82.918;2023-12-28T22:24:50;1.95;;;1.00;;
80119;SDS011;69425;55.040;82.918;2023-12-28T22:29:52;1.00;;;0.50;;
80119;SDS011;69425;55.040;82.918;2023-12-28T22:34:54;2.38;;;0.43;;
80119;SDS011;69425;55.040;82.918;2023-12-28T22:39:56;1.17;;;0.57;;
80119;SDS011;69425;55.040;82.918;2023-12-28T22:44:57;1.38;;;0.70;;
80119;SDS011;69425;55.040;82.918;2023-12-28T22:50:00;1.45;;;0.95;;
80119;SDS011;69425;55.040;82.918;2023-12-28T22:55:01;5.25;;;0.98;;
80119;SDS011;69425;55.040;82.918;2023-12-28T23:00:04;0.35;;;0.20;;
80119;SDS011;69425;55.040;82.918;2023-12-28T23:10:09;0.75;;;0.50;;
80119;SDS011;69425;55.040;82.918;2023-12-28T23:15:10;1.75;;;0.98;;
80119;SDS011;69425;55.040;82.918;2023-12-28T23:20:13;1.88;;;0.45;;
80119;SDS011;69425;55.040;82.918;2023-12-28T23:25:15;1.65;;;0.98;;
80119;SDS011;69425;55.040;82.918;2023-12-28T23:30:16;0.70;;;0.70;;
80119;SDS011;69425;55.040;82.918;2023-12-28T23:35:19;1.17;;;0.77;;
80119;SDS011;69425;55.040;82.918;2023-12-28T23:40:20;0.60;;;0.45;;
80119;SDS011;69425;55.040;82.918;2023-12-28T23:45:22;1.17;;;0.65;;
80119;SDS011;69425;55.040;82.918;2023-12-28T23:50:24;1.15;;;0.70;;
80119;SDS011;69425;55.040;82.918;2023-12-28T23:55:26;0.93;;;0.68;;
